sensor_id;sensor_type;location;lat;lon;timestamp;temperature;humidity
46231;DHT22;31949;51.404;-0.038;2023-10-19T00:01:27;15.10;99.90
46231;DHT22;31949;51.404;-0.038;2023-10-19T00:03:55;15.10;99.90
46231;DHT22;31949;51.404;-0.038;2023-10-19T00:06:23;15.10;99.90
46231;DHT22;31949;51.404;-0.038;2023-10-19T00:08:50;15.10;99.90
46231;DHT22;31949;51.404;-0.038;2023-10-19T00:11:19;15.00;99.90
46231;DHT22;31949;51.404;-0.038;2023-10-19T00:13:51;15.00;99.90
46231;DHT22;31949;51.404;-0.038;2023-10-19T00:16:22;14.90;99.90
46231;DHT22;31949;51.404;-0.038;2023-10-19T00:19:02;14.90;99.90
46231;DHT22;31949;51.404;-0.038;2023-10-19T00:21:30;14.80;99.90
46231;DHT22;31949;51.404;-0.038;2023-10-19T00:24:10;14.80;99.90
46231;DHT22;31949;51.404;-0.038;2023-10-19T00:26:37;14.70;99.90
46231;DHT22;31949;51.404;-0.038;2023-10-19T00:29:07;14.70;99.90
46231;DHT22;31949;51.404;-0.038;2023-10-19T00:32:12;14.80;99.90
46231;DHT22;31949;51.404;-0.038;2023-10-19T00:34:42;14.80;99.90
46231;DHT22;31949;51.404;-0.038;2023-10-19T00:37:18;14.80;99.90
46231;DHT22;31949;51.404;-0.038;2023-10-19T00:39:55;14.80;99.90
46231;DHT22;31949;51.404;-0.038;2023-10-19T00:42:23;14.80;99.90
46231;DHT22;31949;51.404;-0.038;2023-10-19T00:44:53;14.90;99.90
46231;DHT22;31949;51.404;-0.038;2023-10-19T00:47:29;14.90;99.90
46231;DHT22;31949;51.404;-0.038;2023-10-19T00:50:08;14.90;99.90
46231;DHT22;31949;51.404;-0.038;2023-10-19T00:52:43;14.90;99.90
46231;DHT22;31949;51.404;-0.038;2023-10-19T00:55:17;14.90;99.90
46231;DHT22;31949;51.404;-0.038;2023-10-19T00:57:48;14.80;99.90
46231;DHT22;31949;51.404;-0.038;2023-10-19T01:00:16;14.80;99.90
46231;DHT22;31949;51.404;-0.038;2023-10-19T01:02:58;14.80;99.90
46231;DHT22;31949;51.404;-0.038;2023-10-19T01:05:32;14.80;99.90
46231;DHT22;31949;51.404;-0.038;2023-10-19T01:08:04;14.80;99.90
46231;DHT22;31949;51.404;-0.038;2023-10-19T01:11:04;14.80;99.90
46231;DHT22;31949;51.404;-0.038;2023-10-19T01:13:31;14.80;99.90
46231;DHT22;31949;51.404;-0.038;2023-10-19T01:16:02;14.80;99.90
46231;DHT22;31949;51.404;-0.038;2023-10-19T01:18:31;14.80;99.90
46231;DHT22;31949;51.404;-0.038;2023-10-19T01:20:59;14.80;99.90
46231;DHT22;31949;51.404;-0.038;2023-10-19T01:23:32;14.80;99.90
46231;DHT22;31949;51.404;-0.038;2023-10-19T01:26:02;14.90;99.90
46231;DHT22;31949;51.404;-0.038;2023-10-19T01:28:36;14.90;99.90
46231;DHT22;31949;51.404;-0.038;2023-10-19T01:31:21;14.90;99.90
46231;DHT22;31949;51.404;-0.038;2023-10-19T01:33:56;14.90;99.90
46231;DHT22;31949;51.404;-0.038;2023-10-19T01:36:25;15.00;99.90
46231;DHT22;31949;51.404;-0.038;2023-10-19T01:38:57;15.00;99.90
46231;DHT22;31949;51.404;-0.038;2023-10-19T01:41:38;15.00;99.90
46231;DHT22;31949;51.404;-0.038;2023-10-19T01:44:08;15.00;99.90
46231;DHT22;31949;51.404;-0.038;2023-10-19T01:46:41;15.10;99.90
46231;DHT22;31949;51.404;-0.038;2023-10-19T01:49:11;15.10;99.90
46231;DHT22;31949;51.404;-0.038;2023-10-19T01:51:39;15.10;99.90
46231;DHT22;31949;51.404;-0.038;2023-10-19T01:54:08;15.10;99.90
46231;DHT22;31949;51.404;-0.038;2023-10-19T01:56:36;15.10;99.90
46231;DHT22;31949;51.404;-0.038;2023-10-19T01:59:06;15.10;99.90
46231;DHT22;31949;51.404;-0.038;2023-10-19T02:01:36;15.10;99.90
46231;DHT22;31949;51.404;-0.038;2023-10-19T02:04:05;15.10;99.90
46231;DHT22;31949;51.404;-0.038;2023-10-19T02:06:34;15.20;99.90
46231;DHT22;31949;51.404;-0.038;2023-10-19T02:11:36;15.20;99.90
46231;DHT22;31949;51.404;-0.038;2023-10-19T02:14:09;15.20;99.90
46231;DHT22;31949;51.404;-0.038;2023-10-19T02:16:44;15.30;99.90
46231;DHT22;31949;51.404;-0.038;2023-10-19T02:19:14;15.30;99.90
46231;DHT22;31949;51.404;-0.038;2023-10-19T02:21:41;15.20;99.90
46231;DHT22;31949;51.404;-0.038;2023-10-19T02:24:10;15.20;99.90
46231;DHT22;31949;51.404;-0.038;2023-10-19T02:26:45;15.30;99.90
46231;DHT22;31949;51.404;-0.038;2023-10-19T02:29:13;15.40;99.90
46231;DHT22;31949;51.404;-0.038;2023-10-19T02:31:41;15.30;99.90
46231;DHT22;31949;51.404;-0.038;2023-10-19T02:34:12;15.30;99.90
46231;DHT22;31949;51.404;-0.038;2023-10-19T02:36:44;15.30;99.90
46231;DHT22;31949;51.404;-0.038;2023-10-19T02:39:13;15.30;99.90
46231;DHT22;31949;51.404;-0.038;2023-10-19T02:41:48;15.20;99.90
46231;DHT22;31949;51.404;-0.038;2023-10-19T02:44:18;15.20;99.90
46231;DHT22;31949;51.404;-0.038;2023-10-19T02:46:47;15.30;99.90
46231;DHT22;31949;51.404;-0.038;2023-10-19T02:49:15;15.40;99.90
46231;DHT22;31949;51.404;-0.038;2023-10-19T02:51:53;15.40;99.90
46231;DHT22;31949;51.404;-0.038;2023-10-19T02:54:23;15.50;99.90
46231;DHT22;31949;51.404;-0.038;2023-10-19T02:56:55;15.50;99.90
46231;DHT22;31949;51.404;-0.038;2023-10-19T02:59:27;15.60;99.90
46231;DHT22;31949;51.404;-0.038;2023-10-19T03:01:57;15.60;99.90
46231;DHT22;31949;51.404;-0.038;2023-10-19T03:04:29;15.60;99.90
46231;DHT22;31949;51.404;-0.038;2023-10-19T03:06:57;15.70;99.90
46231;DHT22;31949;51.404;-0.038;2023-10-19T03:09:25;15.70;99.90
46231;DHT22;31949;51.404;-0.038;2023-10-19T03:11:56;15.70;99.90
46231;DHT22;31949;51.404;-0.038;2023-10-19T03:14:27;15.70;99.90
46231;DHT22;31949;51.404;-0.038;2023-10-19T03:16:54;15.70;99.90
46231;DHT22;31949;51.404;-0.038;2023-10-19T03:19:22;15.70;99.90
46231;DHT22;31949;51.404;-0.038;2023-10-19T03:21:53;15.80;99.90
46231;DHT22;31949;51.404;-0.038;2023-10-19T03:24:23;15.80;99.90
46231;DHT22;31949;51.404;-0.038;2023-10-19T03:27:07;15.80;99.90
46231;DHT22;31949;51.404;-0.038;2023-10-19T03:29:45;15.90;99.90
46231;DHT22;31949;51.404;-0.038;2023-10-19T03:32:14;16.00;99.90
46231;DHT22;31949;51.404;-0.038;2023-10-19T03:34:44;16.00;99.90
46231;DHT22;31949;51.404;-0.038;2023-10-19T03:37:15;16.00;99.90
46231;DHT22;31949;51.404;-0.038;2023-10-19T03:39:44;15.90;99.90
46231;DHT22;31949;51.404;-0.038;2023-10-19T03:42:13;15.90;99.90
46231;DHT22;31949;51.404;-0.038;2023-10-19T03:44:41;16.00;99.90
46231;DHT22;31949;51.404;-0.038;2023-10-19T03:47:14;15.90;99.90
46231;DHT22;31949;51.404;-0.038;2023-10-19T03:49:49;16.00;99.90
46231;DHT22;31949;51.404;-0.038;2023-10-19T03:52:17;16.00;99.90
46231;DHT22;31949;51.404;-0.038;2023-10-19T03:54:45;16.00;99.90
46231;DHT22;31949;51.404;-0.038;2023-10-19T03:57:15;15.90;99.90
46231;DHT22;31949;51.404;-0.038;2023-10-19T03:59:47;16.00;99.90
46231;DHT22;31949;51.404;-0.038;2023-10-19T04:02:20;15.90;99.90
46231;DHT22;31949;51.404;-0.038;2023-10-19T04:05:02;15.90;99.90
46231;DHT22;31949;51.404;-0.038;2023-10-19T04:07:30;15.90;99.90
46231;DHT22;31949;51.404;-0.038;2023-10-19T04:09:59;15.90;99.90
46231;DHT22;31949;51.404;-0.038;2023-10-19T04:12:37;16.00;99.90
46231;DHT22;31949;51.404;-0.038;2023-10-19T04:15:05;15.90;99.90
46231;DHT22;31949;51.404;-0.038;2023-10-19T04:17:38;15.90;99.90
46231;DHT22;31949;51.404;-0.038;2023-10-19T04:20:07;16.00;99.90
46231;DHT22;31949;51.404;-0.038;2023-10-19T04:22:48;15.90;99.90
46231;DHT22;31949;51.404;-0.038;2023-10-19T04:25:18;16.00;99.90
46231;DHT22;31949;51.404;-0.038;2023-10-19T04:28:03;15.90;99.90
46231;DHT22;31949;51.404;-0.038;2023-10-19T04:30:32;15.90;99.90
46231;DHT22;31949;51.404;-0.038;2023-10-19T04:33:00;15.90;99.90
46231;DHT22;31949;51.404;-0.038;2023-10-19T04:35:28;15.90;99.90
46231;DHT22;31949;51.404;-0.038;2023-10-19T04:38:03;15.90;99.90
46231;DHT22;31949;51.404;-0.038;2023-10-19T04:40:30;15.90;99.90
46231;DHT22;31949;51.404;-0.038;2023-10-19T04:42:57;15.90;99.90
46231;DHT22;31949;51.404;-0.038;2023-10-19T04:45:25;15.90;99.90
46231;DHT22;31949;51.404;-0.038;2023-10-19T04:47:52;15.90;99.90
46231;DHT22;31949;51.404;-0.038;2023-10-19T04:50:20;15.90;99.90
46231;DHT22;31949;51.404;-0.038;2023-10-19T04:52:47;15.90;99.90
46231;DHT22;31949;51.404;-0.038;2023-10-19T04:55:15;15.90;99.90
46231;DHT22;31949;51.404;-0.038;2023-10-19T04:57:42;16.00;99.90
46231;DHT22;31949;51.404;-0.038;2023-10-19T05:00:10;16.10;99.90
46231;DHT22;31949;51.404;-0.038;2023-10-19T05:02:41;16.00;99.90
46231;DHT22;31949;51.404;-0.038;2023-10-19T05:05:09;16.00;99.90
46231;DHT22;31949;51.404;-0.038;2023-10-19T05:07:36;16.10;99.90
46231;DHT22;31949;51.404;-0.038;2023-10-19T05:10:04;16.10;99.90
46231;DHT22;31949;51.404;-0.038;2023-10-19T05:12:32;16.10;99.90
46231;DHT22;31949;51.404;-0.038;2023-10-19T05:15:00;16.20;99.90
46231;DHT22;31949;51.404;-0.038;2023-10-19T05:17:27;16.20;99.90
46231;DHT22;31949;51.404;-0.038;2023-10-19T05:19:55;16.10;99.90
46231;DHT22;31949;51.404;-0.038;2023-10-19T05:22:23;16.10;99.90
46231;DHT22;31949;51.404;-0.038;2023-10-19T05:24:52;16.20;99.90
46231;DHT22;31949;51.404;-0.038;2023-10-19T05:27:19;16.20;99.90
46231;DHT22;31949;51.404;-0.038;2023-10-19T05:29:47;16.10;99.90
46231;DHT22;31949;51.404;-0.038;2023-10-19T05:32:14;16.10;99.90
46231;DHT22;31949;51.404;-0.038;2023-10-19T05:34:42;16.10;99.90
46231;DHT22;31949;51.404;-0.038;2023-10-19T05:37:09;16.10;99.90
46231;DHT22;31949;51.404;-0.038;2023-10-19T05:39:37;16.10;99.90
46231;DHT22;31949;51.404;-0.038;2023-10-19T05:42:04;16.10;99.90
46231;DHT22;31949;51.404;-0.038;2023-10-19T05:44:32;16.20;99.90
46231;DHT22;31949;51.404;-0.038;2023-10-19T05:47:00;16.20;99.90
46231;DHT22;31949;51.404;-0.038;2023-10-19T05:49:28;16.30;99.90
46231;DHT22;31949;51.404;-0.038;2023-10-19T05:51:56;16.30;99.90
46231;DHT22;31949;51.404;-0.038;2023-10-19T05:54:23;16.30;99.90
46231;DHT22;31949;51.404;-0.038;2023-10-19T05:56:51;16.30;99.90
46231;DHT22;31949;51.404;-0.038;2023-10-19T05:59:20;16.30;99.90
46231;DHT22;31949;51.404;-0.038;2023-10-19T06:01:47;16.20;99.90
46231;DHT22;31949;51.404;-0.038;2023-10-19T06:04:15;16.20;99.90
46231;DHT22;31949;51.404;-0.038;2023-10-19T06:06:47;16.10;99.90
46231;DHT22;31949;51.404;-0.038;2023-10-19T06:09:16;16.10;99.90
46231;DHT22;31949;51.404;-0.038;2023-10-19T06:11:45;16.20;99.90
46231;DHT22;31949;51.404;-0.038;2023-10-19T06:14:13;16.10;99.90
46231;DHT22;31949;51.404;-0.038;2023-10-19T06:16:40;16.20;99.90
46231;DHT22;31949;51.404;-0.038;2023-10-19T06:19:08;16.30;99.90
46231;DHT22;31949;51.404;-0.038;2023-10-19T06:21:36;16.20;99.90
46231;DHT22;31949;51.404;-0.038;2023-10-19T06:24:04;16.20;99.90
46231;DHT22;31949;51.404;-0.038;2023-10-19T06:26:31;16.20;99.90
46231;DHT22;31949;51.404;-0.038;2023-10-19T06:28:58;16.20;99.90
46231;DHT22;31949;51.404;-0.038;2023-10-19T06:31:26;16.20;99.90
46231;DHT22;31949;51.404;-0.038;2023-10-19T06:33:56;16.20;99.90
46231;DHT22;31949;51.404;-0.038;2023-10-19T06:36:25;16.20;99.90
46231;DHT22;31949;51.404;-0.038;2023-10-19T06:38:52;16.20;99.90
46231;DHT22;31949;51.404;-0.038;2023-10-19T06:41:21;16.20;99.90
46231;DHT22;31949;51.404;-0.038;2023-10-19T06:43:49;16.30;99.90
46231;DHT22;31949;51.404;-0.038;2023-10-19T06:46:17;16.30;99.90
46231;DHT22;31949;51.404;-0.038;2023-10-19T06:48:45;16.30;99.90
46231;DHT22;31949;51.404;-0.038;2023-10-19T06:51:12;16.30;99.90
46231;DHT22;31949;51.404;-0.038;2023-10-19T06:53:39;16.30;99.90
46231;DHT22;31949;51.404;-0.038;2023-10-19T06:56:07;16.40;99.90
46231;DHT22;31949;51.404;-0.038;2023-10-19T06:58:34;16.30;99.90
46231;DHT22;31949;51.404;-0.038;2023-10-19T07:01:07;16.30;99.90
46231;DHT22;31949;51.404;-0.038;2023-10-19T07:03:35;16.40;99.90
46231;DHT22;31949;51.404;-0.038;2023-10-19T07:06:04;16.30;99.90
46231;DHT22;31949;51.404;-0.038;2023-10-19T07:08:38;16.30;99.90
46231;DHT22;31949;51.404;-0.038;2023-10-19T07:11:05;16.40;99.90
46231;DHT22;31949;51.404;-0.038;2023-10-19T07:13:33;16.40;99.90
46231;DHT22;31949;51.404;-0.038;2023-10-19T07:16:01;16.50;99.90
46231;DHT22;31949;51.404;-0.038;2023-10-19T07:18:30;16.40;99.90
46231;DHT22;31949;51.404;-0.038;2023-10-19T07:20:58;16.40;99.90
46231;DHT22;31949;51.404;-0.038;2023-10-19T07:23:32;16.40;99.90
46231;DHT22;31949;51.404;-0.038;2023-10-19T07:25:59;16.50;99.90
46231;DHT22;31949;51.404;-0.038;2023-10-19T07:28:27;16.50;99.90
46231;DHT22;31949;51.404;-0.038;2023-10-19T07:30:55;16.40;99.90
46231;DHT22;31949;51.404;-0.038;2023-10-19T07:33:23;16.60;99.90
46231;DHT22;31949;51.404;-0.038;2023-10-19T07:35:51;16.60;99.90
46231;DHT22;31949;51.404;-0.038;2023-10-19T07:38:22;16.50;99.90
46231;DHT22;31949;51.404;-0.038;2023-10-19T07:40:51;16.50;99.90
46231;DHT22;31949;51.404;-0.038;2023-10-19T07:43:21;16.50;99.90
46231;DHT22;31949;51.404;-0.038;2023-10-19T07:45:49;16.50;99.90
46231;DHT22;31949;51.404;-0.038;2023-10-19T07:48:17;16.50;99.90
46231;DHT22;31949;51.404;-0.038;2023-10-19T07:50:44;16.50;99.90
46231;DHT22;31949;51.404;-0.038;2023-10-19T07:53:12;16.60;99.90
46231;DHT22;31949;51.404;-0.038;2023-10-19T07:55:39;16.70;99.90
46231;DHT22;31949;51.404;-0.038;2023-10-19T07:58:07;16.70;99.90
46231;DHT22;31949;51.404;-0.038;2023-10-19T08:00:34;16.70;99.90
46231;DHT22;31949;51.404;-0.038;2023-10-19T08:03:03;16.70;99.90
46231;DHT22;31949;51.404;-0.038;2023-10-19T08:05:32;16.70;99.90
46231;DHT22;31949;51.404;-0.038;2023-10-19T08:08:02;16.70;99.90
46231;DHT22;31949;51.404;-0.038;2023-10-19T08:10:32;16.70;99.90
46231;DHT22;31949;51.404;-0.038;2023-10-19T08:13:01;16.70;99.90
46231;DHT22;31949;51.404;-0.038;2023-10-19T08:15:29;16.80;99.90
46231;DHT22;31949;51.404;-0.038;2023-10-19T08:17:57;16.90;99.90
46231;DHT22;31949;51.404;-0.038;2023-10-19T08:20:25;16.90;99.90
46231;DHT22;31949;51.404;-0.038;2023-10-19T08:23:00;17.00;99.90
46231;DHT22;31949;51.404;-0.038;2023-10-19T08:25:29;16.90;99.90
46231;DHT22;31949;51.404;-0.038;2023-10-19T08:28:17;17.00;99.90
46231;DHT22;31949;51.404;-0.038;2023-10-19T08:30:44;16.90;99.90
46231;DHT22;31949;51.404;-0.038;2023-10-19T08:33:24;17.00;99.90
46231;DHT22;31949;51.404;-0.038;2023-10-19T08:35:54;17.00;99.90
46231;DHT22;31949;51.404;-0.038;2023-10-19T08:38:22;17.10;99.90
46231;DHT22;31949;51.404;-0.038;2023-10-19T08:40:53;17.10;99.90
46231;DHT22;31949;51.404;-0.038;2023-10-19T08:43:21;17.00;99.90
46231;DHT22;31949;51.404;-0.038;2023-10-19T08:45:48;17.00;99.90
46231;DHT22;31949;51.404;-0.038;2023-10-19T08:48:16;17.00;99.90
46231;DHT22;31949;51.404;-0.038;2023-10-19T08:50:44;17.10;99.90
46231;DHT22;31949;51.404;-0.038;2023-10-19T08:53:13;17.20;99.90
46231;DHT22;31949;51.404;-0.038;2023-10-19T08:55:41;17.20;99.90
46231;DHT22;31949;51.404;-0.038;2023-10-19T08:58:16;17.30;99.90
46231;DHT22;31949;51.404;-0.038;2023-10-19T09:00:51;17.40;99.90
46231;DHT22;31949;51.404;-0.038;2023-10-19T09:03:25;17.50;99.90
46231;DHT22;31949;51.404;-0.038;2023-10-19T09:05:54;17.50;99.90
46231;DHT22;31949;51.404;-0.038;2023-10-19T09:08:23;17.50;99.90
46231;DHT22;31949;51.404;-0.038;2023-10-19T09:10:52;17.50;99.90
46231;DHT22;31949;51.404;-0.038;2023-10-19T09:13:22;17.60;99.90
46231;DHT22;31949;51.404;-0.038;2023-10-19T09:15:51;17.60;99.90
46231;DHT22;31949;51.404;-0.038;2023-10-19T09:18:24;17.50;99.90
46231;DHT22;31949;51.404;-0.038;2023-10-19T09:20:55;17.40;99.90
46231;DHT22;31949;51.404;-0.038;2023-10-19T09:23:30;17.40;99.90
46231;DHT22;31949;51.404;-0.038;2023-10-19T09:25:59;17.50;99.90
46231;DHT22;31949;51.404;-0.038;2023-10-19T09:28:31;17.40;99.90
46231;DHT22;31949;51.404;-0.038;2023-10-19T09:31:01;17.40;99.90
46231;DHT22;31949;51.404;-0.038;2023-10-19T09:33:33;17.40;99.90
46231;DHT22;31949;51.404;-0.038;2023-10-19T09:36:02;17.30;99.90
46231;DHT22;31949;51.404;-0.038;2023-10-19T09:38:31;17.30;99.90
46231;DHT22;31949;51.404;-0.038;2023-10-19T09:41:00;17.40;99.90
46231;DHT22;31949;51.404;-0.038;2023-10-19T09:43:34;17.30;99.90
46231;DHT22;31949;51.404;-0.038;2023-10-19T09:46:10;17.30;99.90
46231;DHT22;31949;51.404;-0.038;2023-10-19T09:48:45;17.30;99.90
46231;DHT22;31949;51.404;-0.038;2023-10-19T09:51:13;17.30;99.90
46231;DHT22;31949;51.404;-0.038;2023-10-19T09:53:47;17.30;99.90
46231;DHT22;31949;51.404;-0.038;2023-10-19T09:56:21;17.30;99.90
46231;DHT22;31949;51.404;-0.038;2023-10-19T09:58:54;17.30;99.90
46231;DHT22;31949;51.404;-0.038;2023-10-19T10:01:22;17.30;99.90
46231;DHT22;31949;51.404;-0.038;2023-10-19T10:03:51;17.40;99.90
46231;DHT22;31949;51.404;-0.038;2023-10-19T10:06:28;17.50;99.90
46231;DHT22;31949;51.404;-0.038;2023-10-19T10:08:59;17.70;99.90
46231;DHT22;31949;51.404;-0.038;2023-10-19T10:11:27;17.70;99.90
46231;DHT22;31949;51.404;-0.038;2023-10-19T10:13:57;17.80;99.90
46231;DHT22;31949;51.404;-0.038;2023-10-19T10:16:29;17.80;99.90
46231;DHT22;31949;51.404;-0.038;2023-10-19T10:18:58;17.80;99.90
46231;DHT22;31949;51.404;-0.038;2023-10-19T10:21:28;17.90;99.90
46231;DHT22;31949;51.404;-0.038;2023-10-19T10:23:59;17.70;99.90
46231;DHT22;31949;51.404;-0.038;2023-10-19T10:26:29;17.80;99.90
46231;DHT22;31949;51.404;-0.038;2023-10-19T10:31:45;17.70;99.90
46231;DHT22;31949;51.404;-0.038;2023-10-19T10:37:13;17.80;99.90
46231;DHT22;31949;51.404;-0.038;2023-10-19T10:39:41;17.90;99.90
46231;DHT22;31949;51.404;-0.038;2023-10-19T10:42:12;18.00;99.90
46231;DHT22;31949;51.404;-0.038;2023-10-19T10:47:11;18.00;99.90
46231;DHT22;31949;51.404;-0.038;2023-10-19T10:49:54;18.20;99.90
46231;DHT22;31949;51.404;-0.038;2023-10-19T10:52:28;18.30;99.90
46231;DHT22;31949;51.404;-0.038;2023-10-19T10:55:09;18.30;99.90
46231;DHT22;31949;51.404;-0.038;2023-10-19T10:57:41;18.40;99.90
46231;DHT22;31949;51.404;-0.038;2023-10-19T11:00:13;18.60;99.90
46231;DHT22;31949;51.404;-0.038;2023-10-19T11:02:44;18.60;99.90
46231;DHT22;31949;51.404;-0.038;2023-10-19T11:05:17;18.50;99.90
46231;DHT22;31949;51.404;-0.038;2023-10-19T11:08:07;18.40;99.90
46231;DHT22;31949;51.404;-0.038;2023-10-19T11:10:36;18.40;99.90
46231;DHT22;31949;51.404;-0.038;2023-10-19T11:13:05;18.40;99.90
46231;DHT22;31949;51.404;-0.038;2023-10-19T11:15:34;18.40;99.90
46231;DHT22;31949;51.404;-0.038;2023-10-19T11:18:01;18.40;99.90
46231;DHT22;31949;51.404;-0.038;2023-10-19T11:20:31;18.50;99.90
46231;DHT22;31949;51.404;-0.038;2023-10-19T11:22:59;18.40;99.90
46231;DHT22;31949;51.404;-0.038;2023-10-19T11:25:30;18.30;99.90
46231;DHT22;31949;51.404;-0.038;2023-10-19T11:28:00;18.40;99.90
46231;DHT22;31949;51.404;-0.038;2023-10-19T11:30:47;18.40;99.90
46231;DHT22;31949;51.404;-0.038;2023-10-19T11:33:15;18.40;99.90
46231;DHT22;31949;51.404;-0.038;2023-10-19T11:35:45;18.50;99.90
46231;DHT22;31949;51.404;-0.038;2023-10-19T11:38:12;18.50;99.90
46231;DHT22;31949;51.404;-0.038;2023-10-19T11:40:39;18.60;99.90
46231;DHT22;31949;51.404;-0.038;2023-10-19T11:43:07;18.60;99.90
46231;DHT22;31949;51.404;-0.038;2023-10-19T11:45:34;18.60;99.90
46231;DHT22;31949;51.404;-0.038;2023-10-19T11:48:03;18.50;99.90
46231;DHT22;31949;51.404;-0.038;2023-10-19T11:50:30;18.40;99.90
46231;DHT22;31949;51.404;-0.038;2023-10-19T11:52:57;18.40;99.90
46231;DHT22;31949;51.404;-0.038;2023-10-19T11:55:24;18.30;99.90
46231;DHT22;31949;51.404;-0.038;2023-10-19T11:57:51;18.40;99.90
46231;DHT22;31949;51.404;-0.038;2023-10-19T12:00:19;18.40;99.90
46231;DHT22;31949;51.404;-0.038;2023-10-19T12:02:49;18.40;99.90
46231;DHT22;31949;51.404;-0.038;2023-10-19T12:05:17;18.40;99.90
46231;DHT22;31949;51.404;-0.038;2023-10-19T12:07:44;18.40;99.90
46231;DHT22;31949;51.404;-0.038;2023-10-19T12:10:12;18.40;99.90
46231;DHT22;31949;51.404;-0.038;2023-10-19T12:12:39;18.40;99.90
46231;DHT22;31949;51.404;-0.038;2023-10-19T12:15:27;18.50;99.90
46231;DHT22;31949;51.404;-0.038;2023-10-19T12:17:54;18.60;99.90
46231;DHT22;31949;51.404;-0.038;2023-10-19T12:20:21;18.50;99.90
46231;DHT22;31949;51.404;-0.038;2023-10-19T12:22:49;18.50;99.90
46231;DHT22;31949;51.404;-0.038;2023-10-19T12:25:21;18.50;99.90
46231;DHT22;31949;51.404;-0.038;2023-10-19T12:28:15;18.50;99.90
46231;DHT22;31949;51.404;-0.038;2023-10-19T12:30:43;18.50;99.90
46231;DHT22;31949;51.404;-0.038;2023-10-19T12:33:10;18.60;99.90
46231;DHT22;31949;51.404;-0.038;2023-10-19T12:35:41;18.70;99.90
46231;DHT22;31949;51.404;-0.038;2023-10-19T12:38:12;18.60;99.90
46231;DHT22;31949;51.404;-0.038;2023-10-19T12:40:44;18.60;99.90
46231;DHT22;31949;51.404;-0.038;2023-10-19T12:43:17;18.50;99.90
46231;DHT22;31949;51.404;-0.038;2023-10-19T12:45:46;18.60;99.90
46231;DHT22;31949;51.404;-0.038;2023-10-19T12:48:25;18.50;99.90
46231;DHT22;31949;51.404;-0.038;2023-10-19T12:51:04;18.50;99.90
46231;DHT22;31949;51.404;-0.038;2023-10-19T12:53:34;18.60;99.90
46231;DHT22;31949;51.404;-0.038;2023-10-19T12:56:02;18.50;99.90
46231;DHT22;31949;51.404;-0.038;2023-10-19T12:58:30;18.70;99.90
46231;DHT22;31949;51.404;-0.038;2023-10-19T13:00:58;18.80;99.90
46231;DHT22;31949;51.404;-0.038;2023-10-19T13:03:27;19.00;99.90
46231;DHT22;31949;51.404;-0.038;2023-10-19T13:05:55;19.10;99.90
46231;DHT22;31949;51.404;-0.038;2023-10-19T13:08:25;19.20;99.90
46231;DHT22;31949;51.404;-0.038;2023-10-19T13:10:54;19.40;99.90
46231;DHT22;31949;51.404;-0.038;2023-10-19T13:13:34;19.40;99.90
46231;DHT22;31949;51.404;-0.038;2023-10-19T13:16:05;19.50;99.90
46231;DHT22;31949;51.404;-0.038;2023-10-19T13:18:36;19.40;99.90
46231;DHT22;31949;51.404;-0.038;2023-10-19T13:21:03;19.40;99.90
46231;DHT22;31949;51.404;-0.038;2023-10-19T13:23:36;19.30;99.90
46231;DHT22;31949;51.404;-0.038;2023-10-19T13:26:03;19.20;99.90
46231;DHT22;31949;51.404;-0.038;2023-10-19T13:28:34;19.10;99.90
46231;DHT22;31949;51.404;-0.038;2023-10-19T13:31:05;19.10;99.90
46231;DHT22;31949;51.404;-0.038;2023-10-19T13:33:36;19.00;99.90
46231;DHT22;31949;51.404;-0.038;2023-10-19T13:36:04;18.90;99.90
46231;DHT22;31949;51.404;-0.038;2023-10-19T13:38:33;18.80;99.90
46231;DHT22;31949;51.404;-0.038;2023-10-19T13:41:04;18.90;99.90
46231;DHT22;31949;51.404;-0.038;2023-10-19T13:43:34;18.80;99.90
46231;DHT22;31949;51.404;-0.038;2023-10-19T13:46:05;18.90;99.90
46231;DHT22;31949;51.404;-0.038;2023-10-19T13:48:33;19.00;99.90
46231;DHT22;31949;51.404;-0.038;2023-10-19T13:51:00;19.00;99.90
46231;DHT22;31949;51.404;-0.038;2023-10-19T13:53:32;19.10;99.90
46231;DHT22;31949;51.404;-0.038;2023-10-19T13:55:59;19.20;99.90
46231;DHT22;31949;51.404;-0.038;2023-10-19T13:58:28;19.20;99.90
46231;DHT22;31949;51.404;-0.038;2023-10-19T14:01:01;19.20;99.90
46231;DHT22;31949;51.404;-0.038;2023-10-19T14:03:31;19.20;99.90
46231;DHT22;31949;51.404;-0.038;2023-10-19T14:05:58;19.10;99.90
46231;DHT22;31949;51.404;-0.038;2023-10-19T14:08:25;19.00;99.90
46231;DHT22;31949;51.404;-0.038;2023-10-19T14:10:53;18.90;99.90
46231;DHT22;31949;51.404;-0.038;2023-10-19T14:13:20;18.70;99.90
46231;DHT22;31949;51.404;-0.038;2023-10-19T14:15:47;18.70;99.90
46231;DHT22;31949;51.404;-0.038;2023-10-19T14:18:14;18.70;99.90
46231;DHT22;31949;51.404;-0.038;2023-10-19T14:20:43;18.70;99.90
46231;DHT22;31949;51.404;-0.038;2023-10-19T14:23:11;18.80;99.90
46231;DHT22;31949;51.404;-0.038;2023-10-19T14:25:38;18.80;99.90
46231;DHT22;31949;51.404;-0.038;2023-10-19T14:28:10;18.90;99.90
46231;DHT22;31949;51.404;-0.038;2023-10-19T14:30:39;18.90;99.90
46231;DHT22;31949;51.404;-0.038;2023-10-19T14:33:06;18.80;99.90
46231;DHT22;31949;51.404;-0.038;2023-10-19T14:35:39;18.70;99.90
46231;DHT22;31949;51.404;-0.038;2023-10-19T14:38:09;18.70;99.90
46231;DHT22;31949;51.404;-0.038;2023-10-19T14:40:39;18.70;99.90
46231;DHT22;31949;51.404;-0.038;2023-10-19T14:43:11;18.70;99.90
46231;DHT22;31949;51.404;-0.038;2023-10-19T14:45:40;18.50;99.90
46231;DHT22;31949;51.404;-0.038;2023-10-19T14:48:09;18.50;99.90
46231;DHT22;31949;51.404;-0.038;2023-10-19T14:50:38;18.50;99.90
46231;DHT22;31949;51.404;-0.038;2023-10-19T14:53:05;18.60;99.90
46231;DHT22;31949;51.404;-0.038;2023-10-19T14:55:33;18.50;99.90
46231;DHT22;31949;51.404;-0.038;2023-10-19T14:58:00;18.40;99.90
46231;DHT22;31949;51.404;-0.038;2023-10-19T15:00:28;18.40;99.90
46231;DHT22;31949;51.404;-0.038;2023-10-19T15:03:05;18.40;99.90
46231;DHT22;31949;51.404;-0.038;2023-10-19T15:05:35;18.30;99.90
46231;DHT22;31949;51.404;-0.038;2023-10-19T15:08:04;18.30;99.90
46231;DHT22;31949;51.404;-0.038;2023-10-19T15:10:39;18.30;99.90
46231;DHT22;31949;51.404;-0.038;2023-10-19T15:13:07;18.30;99.90
46231;DHT22;31949;51.404;-0.038;2023-10-19T15:15:34;18.30;99.90
46231;DHT22;31949;51.404;-0.038;2023-10-19T15:18:03;18.30;99.90
46231;DHT22;31949;51.404;-0.038;2023-10-19T15:20:31;18.20;99.90
46231;DHT22;31949;51.404;-0.038;2023-10-19T15:22:59;18.20;99.90
46231;DHT22;31949;51.404;-0.038;2023-10-19T15:25:27;18.20;99.90
46231;DHT22;31949;51.404;-0.038;2023-10-19T15:27:54;18.10;99.90
46231;DHT22;31949;51.404;-0.038;2023-10-19T15:30:22;18.10;99.90
46231;DHT22;31949;51.404;-0.038;2023-10-19T15:32:52;18.10;99.90
46231;DHT22;31949;51.404;-0.038;2023-10-19T15:35:21;18.10;99.90
46231;DHT22;31949;51.404;-0.038;2023-10-19T15:37:52;18.00;99.90
46231;DHT22;31949;51.404;-0.038;2023-10-19T15:40:24;18.00;99.90
46231;DHT22;31949;51.404;-0.038;2023-10-19T15:42:52;18.00;99.90
46231;DHT22;31949;51.404;-0.038;2023-10-19T15:45:26;18.00;99.90